#dbistima — V2PX5 — position and weather

sailwx.info

Track history (hours):
 
Tides and Currents Weather Stations Pressure Air Temp Water Temp Dewpoint Dewpoint Depression Visibility Wind Speed Wind Dir Waves Ship Positions

#dbistima

Last reported at 2016-Sep-25 11:25 UTC. Time now 2016-Sep-25 12:20 UTC.
Position N 55°52' E 012°50'.

MMSI: 304010972.

Date/timePositionNaut miles runAvg speedWind from/ knotsBaromVisibWave heightAir tempDewpointWater temp
2016-Sep-25 11:25N 55°52' E 012°50'0 0.0
2016-Sep-25 10:31N 55°52' E 012°50'0 0.0
2016-Sep-25 09:31N 55°52' E 012°50'0 0.0
2016-Sep-25 07:31N 55°52' E 012°50'0 0.0
2016-Sep-25 04:31N 55°52' E 012°50'0 0.0
2016-Sep-25 00:31N 55°52' E 012°50'0 0.0
2016-Sep-24 22:31N 55°52' E 012°50'0 0.0
2016-Sep-24 21:31N 55°52' E 012°50'0 0.0
2016-Sep-24 19:31N 55°52' E 012°50'0 0.0
2016-Sep-24 18:31N 55°52' E 012°50'0 0.0
2016-Sep-24 17:31N 55°52' E 012°50'0 0.0
2016-Sep-24 16:31N 55°52' E 012°50'0 0.0
2016-Sep-24 14:31N 55°52' E 012°50'0 0.0
2016-Sep-24 12:31N 55°52' E 012°50'0 0.0
2016-Sep-24 10:31N 55°52' E 012°50'0 0.0
2016-Sep-24 09:31N 55°52' E 012°50'0 0.0
2016-Sep-24 03:31N 55°52' E 012°50'0 0.0
2016-Sep-24 02:31N 55°52' E 012°50'0 0.0
2016-Sep-24 01:31N 55°52' E 012°50'0 0.0
2016-Sep-24 00:31N 55°52' E 012°50'0 0.0
2016-Sep-23 19:31N 55°52' E 012°50'0 0.0
2016-Sep-23 17:31N 55°52' E 012°50'0 0.0
2016-Sep-23 16:31N 55°52' E 012°50'0 0.0
2016-Sep-23 15:31N 55°52' E 012°50'0 0.0
2016-Sep-23 13:31N 55°52' E 012°50'0 0.0
2016-Sep-23 09:31N 55°52' E 012°50'0 0.0
2016-Sep-23 06:31N 55°52' E 012°50'0 0.0
2016-Sep-23 04:31N 55°52' E 012°50'0 0.0
2016-Sep-23 03:31N 55°52' E 012°50'0 0.0
2016-Sep-23 02:31N 55°52' E 012°50'0 0.0
2016-Sep-23 01:31N 55°52' E 012°50'0 0.0
2016-Sep-23 00:28N 55°52' E 012°50'0 0.0
2016-Sep-22 23:31N 55°52' E 012°50'0 0.0
2016-Sep-22 20:31N 55°52' E 012°50'3 0.4
2016-Sep-22 12:32N 55°54' E 012°47'0 0.0
2016-Sep-22 04:32N 55°54' E 012°46'0 0.0
2016-Sep-22 03:32N 55°54' E 012°46'0 0.0
2016-Sep-22 00:32N 55°54' E 012°46'0 0.0
2016-Sep-21 23:32N 55°54' E 012°46'0 0.0
2016-Sep-21 22:32N 55°54' E 012°46'0 0.0
2016-Sep-21 19:32N 55°54' E 012°47'18 6.0
2016-Sep-21 16:33N 55°36' E 012°42'46 6.6
2016-Sep-21 09:33N 55°15' E 013°54'1010.2
2016-Sep-21 08:33N 55°13' E 014°12'3010.0
2016-Sep-21 05:33N 55°33' E 014°52'39110.0
2016-Sep-19 14:31N 59°31' E 024°29'1 0.7
2016-Sep-19 13:32N 59°31' E 024°31'0 0.0
2016-Sep-19 12:29N 59°31' E 024°31'0 0.0
2016-Sep-19 11:32N 59°31' E 024°31'0 0.0
2016-Sep-19 09:29N 59°31' E 024°31'4 2.0
2016-Sep-19 07:33N 59°34' E 024°26'8 8.3
2016-Sep-19 06:34N 59°39' E 024°39'29 8.7
2016-Sep-19 03:10N 59°54' E 025°29'610.0
2016-Sep-19 02:32N 59°55' E 025°41'69 9.8
2016-Sep-18 19:31N 60°17' E 027°53'  
2016-Sep-15 12:32N 60°22' E 027°09'8 8.2
2016-Sep-15 11:33N 60°29' E 026°60'  
Track history (hours):
 
Tides and Currents Weather Stations Pressure Air Temp Water Temp Dewpoint Dewpoint Depression Visibility Wind Speed Wind Dir Waves Ship Positions

#dbistima

Last reported at 2016-Sep-25 11:25 UTC. Time now 2016-Sep-25 12:20 UTC.
Position N 55°52' E 012°50'.

MMSI: 304010972.

Date/timePositionNaut miles runAvg speedWind from/ knotsBaromVisibWave heightAir tempDewpointWater temp
2016-Sep-25 11:25N 55°52' E 012°50'0 0.0
2016-Sep-25 10:31N 55°52' E 012°50'0 0.0
2016-Sep-25 09:31N 55°52' E 012°50'0 0.0
2016-Sep-25 07:31N 55°52' E 012°50'0 0.0
2016-Sep-25 04:31N 55°52' E 012°50'0 0.0
2016-Sep-25 00:31N 55°52' E 012°50'0 0.0
2016-Sep-24 22:31N 55°52' E 012°50'0 0.0
2016-Sep-24 21:31N 55°52' E 012°50'0 0.0
2016-Sep-24 19:31N 55°52' E 012°50'0 0.0
2016-Sep-24 18:31N 55°52' E 012°50'0 0.0
2016-Sep-24 17:31N 55°52' E 012°50'0 0.0
2016-Sep-24 16:31N 55°52' E 012°50'0 0.0
2016-Sep-24 14:31N 55°52' E 012°50'0 0.0
2016-Sep-24 12:31N 55°52' E 012°50'0 0.0
2016-Sep-24 10:31N 55°52' E 012°50'0 0.0
2016-Sep-24 09:31N 55°52' E 012°50'0 0.0
2016-Sep-24 03:31N 55°52' E 012°50'0 0.0
2016-Sep-24 02:31N 55°52' E 012°50'0 0.0
2016-Sep-24 01:31N 55°52' E 012°50'0 0.0
2016-Sep-24 00:31N 55°52' E 012°50'0 0.0
2016-Sep-23 19:31N 55°52' E 012°50'0 0.0
2016-Sep-23 17:31N 55°52' E 012°50'0 0.0
2016-Sep-23 16:31N 55°52' E 012°50'0 0.0
2016-Sep-23 15:31N 55°52' E 012°50'0 0.0
2016-Sep-23 13:31N 55°52' E 012°50'0 0.0
2016-Sep-23 09:31N 55°52' E 012°50'0 0.0
2016-Sep-23 06:31N 55°52' E 012°50'0 0.0
2016-Sep-23 04:31N 55°52' E 012°50'0 0.0
2016-Sep-23 03:31N 55°52' E 012°50'0 0.0
2016-Sep-23 02:31N 55°52' E 012°50'0 0.0
2016-Sep-23 01:31N 55°52' E 012°50'0 0.0
2016-Sep-23 00:28N 55°52' E 012°50'0 0.0
2016-Sep-22 23:31N 55°52' E 012°50'0 0.0
2016-Sep-22 20:31N 55°52' E 012°50'3 0.4
2016-Sep-22 12:32N 55°54' E 012°47'0 0.0
2016-Sep-22 04:32N 55°54' E 012°46'0 0.0
2016-Sep-22 03:32N 55°54' E 012°46'0 0.0
2016-Sep-22 00:32N 55°54' E 012°46'0 0.0
2016-Sep-21 23:32N 55°54' E 012°46'0 0.0
2016-Sep-21 22:32N 55°54' E 012°46'0 0.0
2016-Sep-21 19:32N 55°54' E 012°47'18 6.0
2016-Sep-21 16:33N 55°36' E 012°42'46 6.6
2016-Sep-21 09:33N 55°15' E 013°54'1010.2
2016-Sep-21 08:33N 55°13' E 014°12'3010.0
2016-Sep-21 05:33N 55°33' E 014°52'39110.0
2016-Sep-19 14:31N 59°31' E 024°29'1 0.7
2016-Sep-19 13:32N 59°31' E 024°31'0 0.0
2016-Sep-19 12:29N 59°31' E 024°31'0 0.0
2016-Sep-19 11:32N 59°31' E 024°31'0 0.0
2016-Sep-19 09:29N 59°31' E 024°31'4 2.0
2016-Sep-19 07:33N 59°34' E 024°26'8 8.3
2016-Sep-19 06:34N 59°39' E 024°39'29 8.7
2016-Sep-19 03:10N 59°54' E 025°29'610.0
2016-Sep-19 02:32N 59°55' E 025°41'69 9.8
2016-Sep-18 19:31N 60°17' E 027°53'  
2016-Sep-15 12:32N 60°22' E 027°09'8 8.2
2016-Sep-15 11:33N 60°29' E 026°60'  

Dump ship's entire track history